createdAt,value
2016-11-03T00:00:37.805Z,11.51
2016-11-03T00:01:47.762Z,11.51
2016-11-03T00:02:57.743Z,11.53
2016-11-03T00:04:07.710Z,11.6
2016-11-03T00:05:17.753Z,11.49
2016-11-03T00:06:28.048Z,11.52
2016-11-03T00:07:37.721Z,11.53
2016-11-03T00:08:47.701Z,11.51
2016-11-03T00:09:57.988Z,11.52
2016-11-03T00:11:07.975Z,11.59
2016-11-03T00:12:17.987Z,11.59
2016-11-03T00:13:27.649Z,11.57
2016-11-03T00:14:37.955Z,11.59
2016-11-03T00:15:47.635Z,11.6
2016-11-03T00:16:57.918Z,11.61
2016-11-03T00:18:08.254Z,11.63
2016-11-03T00:19:18.224Z,11.63
2016-11-03T00:20:28.228Z,11.53
2016-11-03T00:21:38.506Z,11.64
2016-11-03T00:22:48.497Z,11.61
2016-11-03T00:23:58.473Z,11.61
2016-11-03T00:25:08.156Z,11.51
2016-11-03T00:26:17.822Z,11.52
2016-11-03T00:27:27.804Z,11.57
2016-11-03T00:28:37.485Z,11.53
2016-11-03T00:29:47.479Z,11.59
2016-11-03T00:30:57.460Z,11.52
2016-11-03T00:32:08.055Z,11.53
2016-11-03T00:33:18.027Z,11.59
2016-11-03T00:34:28.314Z,11.6
2016-11-03T00:35:38.600Z,11.61
2016-11-03T00:36:48.887Z,11.52
2016-11-03T00:37:58.865Z,11.59
2016-11-03T00:39:08.236Z,11.64
2016-11-03T00:40:17.898Z,11.56
2016-11-03T00:41:28.185Z,11.61
2016-11-03T00:42:37.861Z,11.57
2016-11-03T00:43:48.161Z,11.49
2016-11-03T00:44:58.487Z,11.53
2016-11-03T00:46:08.786Z,11.51
2016-11-03T00:47:18.788Z,11.48
2016-11-03T00:48:29.065Z,11.43
2016-11-03T00:49:39.028Z,11.33
2016-11-03T00:50:49.317Z,11.33
2016-11-03T00:51:59.381Z,11.34
2016-11-03T00:53:09.718Z,11.27
2016-11-03T00:54:20.240Z,11.38
2016-11-03T00:55:30.220Z,11.35
2016-11-03T00:56:40.497Z,11.35
2016-11-03T00:57:50.493Z,11.33
2016-11-03T00:59:00.464Z,11.41
2016-11-03T01:00:10.427Z,11.3
2016-11-03T01:01:20.399Z,11.28
2016-11-03T01:02:30.383Z,11.28
2016-11-03T01:03:40.717Z,11.21
2016-11-03T01:04:51.019Z,11.15
2016-11-03T01:06:01.312Z,11.1
2016-11-03T01:07:11.323Z,11.09
2016-11-03T01:08:21.630Z,11.06
2016-11-03T01:09:31.922Z,10.98
2016-11-03T01:10:42.217Z,10.94
2016-11-03T01:11:52.493Z,10.95
2016-11-03T01:13:02.793Z,10.92
2016-11-03T01:14:12.771Z,10.85
2016-11-03T01:15:22.789Z,10.84
2016-11-03T01:16:32.166Z,10.76
2016-11-03T01:17:42.143Z,10.77
2016-11-03T01:18:52.425Z,10.8
2016-11-03T01:20:02.407Z,10.72
2016-11-03T01:21:12.087Z,10.69
2016-11-03T01:22:22.070Z,10.66
2016-11-03T01:23:32.059Z,10.65
2016-11-03T01:24:42.058Z,10.59
2016-11-03T01:25:52.025Z,10.57
2016-11-03T01:27:02.017Z,10.54
2016-11-03T01:28:11.678Z,10.59
2016-11-03T01:29:21.661Z,10.51
2016-11-03T01:30:31.940Z,10.52
2016-11-03T01:31:41.918Z,10.57
2016-11-03T01:32:52.247Z,10.49
2016-11-03T01:34:02.234Z,10.44
2016-11-03T01:35:12.223Z,10.44
2016-11-03T01:36:22.506Z,10.47
2016-11-03T01:37:32.492Z,10.38
2016-11-03T01:38:42.770Z,10.38
2016-11-03T01:39:52.124Z,10.44
2016-11-03T01:41:01.778Z,10.38
2016-11-03T01:42:11.753Z,10.33
2016-11-03T01:43:21.740Z,10.38
2016-11-03T01:44:31.712Z,10.32
2016-11-03T01:45:41.739Z,10.21
2016-11-03T01:46:51.709Z,10.32
2016-11-03T01:48:01.677Z,10.31
2016-11-03T01:49:11.035Z,10.26
2016-11-03T01:50:21.553Z,10.32
2016-11-03T01:51:31.843Z,10.31
2016-11-03T01:52:41.554Z,10.26
2016-11-03T01:53:51.535Z,10.25
2016-11-03T01:55:01.537Z,10.26
2016-11-03T01:56:11.533Z,10.25
2016-11-03T01:57:21.830Z,10.17
2016-11-03T01:58:31.823Z,10.23
2016-11-03T01:59:42.114Z,10.2
2016-11-03T02:00:52.405Z,10.15
2016-11-03T02:02:02.072Z,10.14
2016-11-03T02:03:12.045Z,10.18
2016-11-03T02:04:22.339Z,10.15
2016-11-03T02:05:32.321Z,10.18
2016-11-03T02:06:41.999Z,10.14
2016-11-03T02:07:51.975Z,10.15
2016-11-03T02:09:01.998Z,10.15
2016-11-03T02:10:11.664Z,10.11
2016-11-03T02:11:22.001Z,10.17
2016-11-03T02:12:31.984Z,10.14
2016-11-03T02:13:41.030Z,10.14
2016-11-03T02:14:51.327Z,10.14
2016-11-03T02:16:00.697Z,10.11
2016-11-03T02:17:10.979Z,10.11
2016-11-03T02:18:20.642Z,10.2
2016-11-03T02:19:30.934Z,10.18
2016-11-03T02:20:41.202Z,10.23
2016-11-03T02:21:51.477Z,10.13
2016-11-03T02:23:01.764Z,10.18
2016-11-03T02:24:11.444Z,10.18
2016-11-03T02:25:21.846Z,10.28
2016-11-03T02:26:32.131Z,10.32
2016-11-03T02:27:42.415Z,10.31
2016-11-03T02:28:52.702Z,10.26
2016-11-03T02:30:02.373Z,10.35
2016-11-03T02:31:12.357Z,10.29
2016-11-03T02:32:22.036Z,10.29
2016-11-03T02:33:32.318Z,10.28
2016-11-03T02:34:42.630Z,10.26
2016-11-03T02:35:52.612Z,10.36
2016-11-03T02:37:02.898Z,10.35
2016-11-03T02:38:13.192Z,10.35
2016-11-03T02:39:23.465Z,10.42
2016-11-03T02:40:32.828Z,10.38
2016-11-03T02:41:42.854Z,10.36
2016-11-03T02:42:53.131Z,10.35
2016-11-03T02:44:03.417Z,10.42
2016-11-03T02:45:13.069Z,10.44
2016-11-03T02:46:23.353Z,10.39
2016-11-03T02:47:33.333Z,10.42
2016-11-03T02:48:43.614Z,10.38
2016-11-03T02:49:53.887Z,10.42
2016-11-03T02:51:03.867Z,10.39
2016-11-03T02:52:13.846Z,10.38
2016-11-03T02:53:23.201Z,10.41
2016-11-03T02:54:33.178Z,10.38
2016-11-03T02:55:43.454Z,10.39
2016-11-03T02:56:53.421Z,10.38
2016-11-03T02:58:03.402Z,10.38
2016-11-03T02:59:13.686Z,10.31
2016-11-03T03:00:23.675Z,10.33
2016-11-03T03:32:24.642Z,7.92
2016-11-03T03:33:34.938Z,7.78
2016-11-03T03:34:45.215Z,7.83
2016-11-03T03:35:55.492Z,7.88
2016-11-03T03:37:05.499Z,7.91
2016-11-03T03:38:15.787Z,8.11
2016-11-03T03:39:26.065Z,8.17
2016-11-03T03:40:36.083Z,8.39
2016-11-03T03:41:46.382Z,8.53
2016-11-03T03:42:56.658Z,8.67
2016-11-03T03:44:06.996Z,8.69
2016-11-03T03:45:16.969Z,9.01
2016-11-03T03:46:26.963Z,9.21
2016-11-03T03:47:36.952Z,9.29
2016-11-03T03:48:46.927Z,9.39
2016-11-03T03:49:57.217Z,9.53
2016-11-03T03:51:07.514Z,9.71
2016-11-03T03:52:17.790Z,9.71
2016-11-03T03:53:27.778Z,9.93
2016-11-03T03:54:37.786Z,9.95
2016-11-03T03:55:47.763Z,10.1
2016-11-03T03:56:58.048Z,10.18
2016-11-03T03:58:08.339Z,10.29
2016-11-03T03:59:18.626Z,10.35
2016-11-03T04:00:28.653Z,10.33
2016-11-03T04:01:38.967Z,10.33
2016-11-03T04:02:48.935Z,10.38
2016-11-03T04:03:58.914Z,10.47
2016-11-03T04:05:09.195Z,10.47
2016-11-03T04:06:18.887Z,10.39
2016-11-03T04:07:28.558Z,10.39
2016-11-03T04:08:38.515Z,10.36
2016-11-03T04:09:48.192Z,10.33
2016-11-03T04:10:57.854Z,10.42
2016-11-03T04:12:08.176Z,10.38
2016-11-03T04:13:18.461Z,10.38
2016-11-03T04:14:28.433Z,10.39
2016-11-03T04:15:38.731Z,10.42
2016-11-03T04:16:48.412Z,10.35
2016-11-03T04:17:58.702Z,10.38
2016-11-03T04:19:09.014Z,10.42
2016-11-03T04:20:19.006Z,10.44
2016-11-03T04:21:29.279Z,10.38
2016-11-03T04:22:39.256Z,10.41
2016-11-03T04:23:49.238Z,10.39
2016-11-03T04:24:58.899Z,10.46
2016-11-03T04:26:09.189Z,10.42
2016-11-03T04:27:19.476Z,10.35
2016-11-03T04:28:29.473Z,10.44
2016-11-03T04:29:39.755Z,10.42
2016-11-03T04:30:49.771Z,10.36
2016-11-03T04:32:00.063Z,10.41
2016-11-03T04:33:10.339Z,10.36
2016-11-03T04:34:20.316Z,10.44
2016-11-03T04:35:30.598Z,10.39
2016-11-03T04:36:40.581Z,10.46
2016-11-03T04:37:50.921Z,10.38
2016-11-03T04:39:00.618Z,10.36
2016-11-03T04:40:10.907Z,10.51
2016-11-03T04:41:21.183Z,10.51
2016-11-03T04:42:31.478Z,10.57
2016-11-03T04:43:41.759Z,10.63
2016-11-03T04:44:51.742Z,10.65
2016-11-03T04:46:01.108Z,10.65
2016-11-03T04:47:11.077Z,10.65
2016-11-03T04:48:21.036Z,10.65
2016-11-03T04:49:31.313Z,10.63
2016-11-03T04:50:41.600Z,10.65
2016-11-03T04:51:51.891Z,10.59
2016-11-03T04:53:02.169Z,10.67
2016-11-03T04:54:12.450Z,10.61
2016-11-03T04:55:22.746Z,10.61
2016-11-03T04:56:33.048Z,10.63
2016-11-03T04:57:43.335Z,10.61
2016-11-03T04:58:53.611Z,10.55
2016-11-03T05:00:03.627Z,10.65
2016-11-03T05:01:12.990Z,10.51
2016-11-03T05:02:22.977Z,10.54
2016-11-03T05:03:32.978Z,10.58
2016-11-03T05:04:42.649Z,10.57
2016-11-03T05:05:52.927Z,10.54
2016-11-03T05:07:02.900Z,10.42
2016-11-03T05:08:12.565Z,10.44
2016-11-03T05:09:22.542Z,10.33
2016-11-03T05:10:32.537Z,10.32
2016-11-03T05:11:42.210Z,10.35
2016-11-03T05:12:52.227Z,10.26
2016-11-03T05:14:02.209Z,10.21
2016-11-03T05:15:12.496Z,10.32
2016-11-03T05:16:22.476Z,10.31
2016-11-03T05:17:32.752Z,10.29
2016-11-03T05:18:42.470Z,10.29
2016-11-03T05:19:52.756Z,10.31
2016-11-03T05:21:02.424Z,10.29
2016-11-03T05:22:12.425Z,10.35
2016-11-03T05:23:22.717Z,10.35
2016-11-03T05:24:33.028Z,10.29
2016-11-03T05:25:43.315Z,10.36
2016-11-03T05:26:53.002Z,10.36
2016-11-03T05:28:02.983Z,10.33
2016-11-03T05:29:13.295Z,10.44
2016-11-03T05:30:23.279Z,10.47
2016-11-03T05:31:33.283Z,10.52
2016-11-03T05:32:43.565Z,10.52
2016-11-03T05:33:53.543Z,10.55
2016-11-03T05:35:03.530Z,10.59
2016-11-03T05:36:13.825Z,10.58
2016-11-03T05:37:23.222Z,10.61
2016-11-03T05:38:33.503Z,10.72
2016-11-03T05:39:43.795Z,10.79
2016-11-03T05:40:53.771Z,10.75
2016-11-03T05:42:03.443Z,10.63
2016-11-03T05:43:13.418Z,10.51
2016-11-03T05:44:23.712Z,10.46
2016-11-03T05:45:33.993Z,10.28
2016-11-03T05:46:43.667Z,10.03
2016-11-03T05:47:53.322Z,9.64
2016-11-03T05:49:02.974Z,9.45
2016-11-03T05:50:13.260Z,9.16
2016-11-03T05:51:22.617Z,8.98
2016-11-03T05:52:32.593Z,8.69
2016-11-03T05:53:42.566Z,8.47
2016-11-03T05:54:52.851Z,8.4
2016-11-03T05:56:03.129Z,8.13
2016-11-03T05:57:12.504Z,7.98
2016-11-03T05:58:22.782Z,7.88
2016-11-03T05:59:32.459Z,7.88
2016-11-03T06:00:42.755Z,7.75
2016-11-03T06:01:52.422Z,7.64
2016-11-03T06:03:02.719Z,7.67
2016-11-03T06:04:12.996Z,7.49
2016-11-03T06:05:23.287Z,7.41
2016-11-03T06:06:33.563Z,7.33
2016-11-03T06:07:43.860Z,7.36
2016-11-03T06:08:53.849Z,7.48
2016-11-03T06:10:03.503Z,7.34
2016-11-03T06:11:13.469Z,7.37
2016-11-03T06:12:22.502Z,7.36
2016-11-03T06:13:32.489Z,7.37
2016-11-03T06:14:42.472Z,7.47
2016-11-03T06:15:52.128Z,7.37
2016-11-03T06:17:02.108Z,7.37
2016-11-03T06:18:12.395Z,7.36
2016-11-03T06:19:21.747Z,7.49
2016-11-03T06:20:31.718Z,7.44
2016-11-03T06:21:41.705Z,7.34
2016-11-03T06:22:51.682Z,7.37
2016-11-03T06:24:01.945Z,7.39
2016-11-03T06:25:12.231Z,7.39
2016-11-03T06:26:22.554Z,7.39
2016-11-03T06:27:32.529Z,7.23
2016-11-03T06:28:42.546Z,7.19
2016-11-03T06:29:52.537Z,7.23
2016-11-03T06:31:02.824Z,7.21
2016-11-03T06:32:12.791Z,7.23
2016-11-03T06:33:22.748Z,7.31
2016-11-03T06:34:33.029Z,7.23
2016-11-03T06:35:42.701Z,7.22
2016-11-03T06:36:52.684Z,7.21
2016-11-03T06:38:02.659Z,7.34
2016-11-03T06:39:12.631Z,7.41
2016-11-03T06:40:22.626Z,7.34
2016-11-03T06:41:32.924Z,7.47
2016-11-03T06:42:42.900Z,7.47
2016-11-03T06:43:53.187Z,7.47
2016-11-03T06:45:03.185Z,7.52
2016-11-03T06:46:13.467Z,7.58
2016-11-03T06:47:23.752Z,7.56
2016-11-03T06:48:33.724Z,7.56
2016-11-03T06:49:44.013Z,7.59
2016-11-03T06:50:54.333Z,7.71
2016-11-03T06:52:04.649Z,7.77
2016-11-03T06:53:14.635Z,7.88
2016-11-03T06:54:23.978Z,7.95
2016-11-03T06:55:33.994Z,7.92
2016-11-03T06:56:43.971Z,8.09
2016-11-03T06:57:53.633Z,7.98
2016-11-03T06:59:03.908Z,8.25
2016-11-03T07:00:13.586Z,8.22
2016-11-03T07:01:23.888Z,8.26
2016-11-03T07:02:33.866Z,8.35
2016-11-03T07:03:44.176Z,8.39
2016-11-03T07:04:54.493Z,8.46
2016-11-03T07:06:04.159Z,8.36
2016-11-03T07:07:14.140Z,8.43
2016-11-03T07:08:24.138Z,8.54
2016-11-03T07:09:34.435Z,8.69
2016-11-03T07:10:44.722Z,8.82
2016-11-03T07:11:54.382Z,8.95
2016-11-03T07:13:04.355Z,9.09
2016-11-03T07:14:14.640Z,9.12
2016-11-03T07:15:24.977Z,9.2
2016-11-03T07:16:35.308Z,9.34
2016-11-03T07:17:45.610Z,9.38
2016-11-03T07:18:55.901Z,9.44
2016-11-03T07:20:06.225Z,9.39
2016-11-03T07:21:16.225Z,9.45
2016-11-03T07:22:26.523Z,9.44
2016-11-03T07:23:36.198Z,9.56
2016-11-03T07:24:46.529Z,9.59
2016-11-03T07:25:56.936Z,9.57
2016-11-03T07:27:06.903Z,9.75
2016-11-03T07:28:16.564Z,9.75
2016-11-03T07:29:26.535Z,9.7
2016-11-03T07:30:36.811Z,9.77
2016-11-03T07:31:46.795Z,9.89
2016-11-03T07:32:57.070Z,9.75
2016-11-03T07:34:07.363Z,9.82
2016-11-03T07:35:17.355Z,9.84
2016-11-03T07:36:27.650Z,9.98
2016-11-03T07:37:37.628Z,10.02
2016-11-03T07:38:46.999Z,9.92
2016-11-03T07:39:57.285Z,10.03
2016-11-03T07:41:07.241Z,10.05
2016-11-03T07:42:17.533Z,10.14
2016-11-03T07:43:27.826Z,10.11
2016-11-03T07:44:38.146Z,10.21
2016-11-03T07:45:48.137Z,10.23
2016-11-03T07:46:58.420Z,10.32
2016-11-03T07:48:08.402Z,10.36
2016-11-03T07:49:18.387Z,10.42
2016-11-03T07:50:28.672Z,10.44
2016-11-03T07:51:38.668Z,10.33
2016-11-03T07:52:48.969Z,10.41
2016-11-03T07:53:58.622Z,10.58
2016-11-03T07:55:08.908Z,10.65
2016-11-03T07:56:19.189Z,10.65
2016-11-03T07:57:29.184Z,10.66
2016-11-03T07:58:39.155Z,10.83
2016-11-03T07:59:49.432Z,10.75
2016-11-03T08:00:59.763Z,10.8
2016-11-03T08:02:09.777Z,10.9
2016-11-03T08:03:19.841Z,10.77
2016-11-03T08:04:30.123Z,10.94
2016-11-03T08:05:40.444Z,10.97
2016-11-03T08:06:50.724Z,10.98
2016-11-03T08:08:00.080Z,11.15
2016-11-03T08:09:10.348Z,11.21
2016-11-03T08:10:20.635Z,11.21
2016-11-03T08:11:30.616Z,11.16
2016-11-03T08:12:40.631Z,11.23
2016-11-03T08:13:50.927Z,11.23
2016-11-03T08:15:00.584Z,11.21
2016-11-03T08:16:10.575Z,11.09
2016-11-03T08:17:20.935Z,10.94
2016-11-03T08:18:30.914Z,10.77
2016-11-03T08:19:40.902Z,10.67
2016-11-03T08:20:51.182Z,10.57
2016-11-03T08:22:01.458Z,10.39
2016-11-03T08:23:11.439Z,10.28
2016-11-03T08:24:21.397Z,10.11
2016-11-03T08:25:31.689Z,10
2016-11-03T08:26:41.670Z,9.99
2016-11-03T08:27:51.962Z,9.98
2016-11-03T08:29:02.243Z,10.44
2016-11-03T08:30:12.534Z,10.63
2016-11-03T08:31:22.815Z,10.57
2016-11-03T08:32:32.479Z,10.77
2016-11-03T08:33:42.769Z,11.06
2016-11-03T08:34:52.745Z,11.15
2016-11-03T08:36:02.727Z,11.15
2016-11-03T08:37:13.004Z,11.39
2016-11-03T08:38:23.286Z,11.49
2016-11-03T08:39:33.553Z,11.48
2016-11-03T08:40:43.839Z,11.68
2016-11-03T08:41:54.119Z,11.7
2016-11-03T08:43:04.398Z,11.76
2016-11-03T08:44:14.688Z,11.76
2016-11-03T08:45:25.031Z,11.84
2016-11-03T08:46:35.307Z,11.85
2016-11-03T08:47:45.288Z,11.86
2016-11-03T08:48:54.957Z,11.89
2016-11-03T08:50:05.262Z,11.95
2016-11-03T08:51:15.547Z,12.03
2016-11-03T08:52:25.526Z,12.13
2016-11-03T08:53:35.807Z,12.23
2016-11-03T08:54:45.848Z,12.19
2016-11-03T08:55:56.145Z,12.36
2016-11-03T08:57:06.136Z,12.41
2016-11-03T08:58:16.110Z,12.62
2016-11-03T08:59:26.391Z,12.76
2016-11-03T09:00:36.686Z,12.74
2016-11-03T09:01:46.981Z,12.84
2016-11-03T09:02:57.256Z,13.06
2016-11-03T09:04:06.937Z,13.11
2016-11-03T09:05:17.226Z,13.36
2016-11-03T09:06:27.516Z,13.62
2016-11-03T09:07:37.503Z,13.6
2016-11-03T09:08:47.773Z,13.73
2016-11-03T09:09:58.070Z,13.76
2016-11-03T09:11:08.096Z,13.9
2016-11-03T09:12:18.383Z,13.97
2016-11-03T09:13:28.672Z,14.16
2016-11-03T09:14:38.649Z,14.53
2016-11-03T09:15:48.935Z,14.59
2016-11-03T09:16:59.225Z,15.1
2016-11-03T09:18:09.536Z,15.3
2016-11-03T09:19:19.825Z,15.1
2016-11-03T09:20:30.114Z,14.71
2016-11-03T09:21:40.421Z,14.87
2016-11-03T09:22:50.747Z,14.69
2016-11-03T09:24:00.730Z,14.7
2016-11-03T09:25:10.427Z,14.86
2016-11-03T09:26:20.707Z,14.52
2016-11-03T09:27:30.695Z,14.15
2016-11-03T09:28:40.675Z,14.03
2016-11-03T09:29:50.971Z,14.41
2016-11-03T09:31:01.300Z,14.69
2016-11-03T09:32:11.600Z,14.86
2016-11-03T09:33:21.583Z,14.74
2016-11-03T09:34:32.113Z,14.49
2016-11-03T09:35:42.095Z,14.2
2016-11-03T09:36:52.071Z,13.63
2016-11-03T09:38:02.363Z,13.53
2016-11-03T09:39:12.667Z,13.58
2016-11-03T09:40:22.961Z,13.27
2016-11-03T09:41:32.924Z,12.91
2016-11-03T09:42:43.215Z,12.76
2016-11-03T09:43:53.508Z,13.02
2016-11-03T09:45:03.800Z,12.99
2016-11-03T09:46:14.085Z,12.81
2016-11-03T09:47:23.772Z,12.58
2016-11-03T09:48:34.074Z,12.55
2016-11-03T09:49:44.041Z,12.63
2016-11-03T09:50:54.332Z,13.24
2016-11-03T09:52:04.319Z,13.11
2016-11-03T09:53:14.031Z,12.89
2016-11-03T09:54:24.314Z,12.89
2016-11-03T09:55:34.595Z,13.37
2016-11-03T09:56:44.577Z,13.69
2016-11-03T09:57:54.861Z,13.84
2016-11-03T09:59:04.831Z,13.45
2016-11-03T10:00:15.136Z,13.24
2016-11-03T10:01:25.466Z,13.35
2016-11-03T10:02:35.815Z,13.72
2016-11-03T10:03:45.790Z,13.75
2016-11-03T10:04:56.118Z,13.37
2016-11-03T10:06:06.410Z,13.1
2016-11-03T10:07:16.698Z,12.86
2016-11-03T10:08:28.475Z,13.19
2016-11-03T10:09:40.473Z,12.99
2016-11-03T10:10:50.544Z,12.83
2016-11-03T10:12:01.014Z,12.89
2016-11-03T10:13:11.188Z,12.89
2016-11-03T10:14:21.398Z,13.07
2016-11-03T10:15:31.767Z,12.89
2016-11-03T10:16:42.136Z,12.77
2016-11-03T10:17:52.621Z,12.69
2016-11-03T10:19:02.627Z,13.45
2016-11-03T10:20:12.956Z,13.7
2016-11-03T10:21:23.282Z,13.58
2016-11-03T10:22:33.643Z,13.29
2016-11-03T10:23:44.014Z,13.69
2016-11-03T10:24:54.112Z,14.08
2016-11-03T10:26:04.502Z,14.42
2016-11-03T10:27:15.172Z,14.3
2016-11-03T10:28:25.517Z,14.16
2016-11-03T10:29:35.925Z,14.27
2016-11-03T10:30:46.424Z,14.8
2016-11-03T10:31:56.796Z,15.12
2016-11-03T10:33:06.834Z,14.94
2016-11-03T10:34:17.198Z,15.43
2016-11-03T10:35:27.633Z,15.75
2016-11-03T10:36:37.981Z,15.98
2016-11-03T10:37:48.016Z,16.21
2016-11-03T10:38:58.352Z,16.4
2016-11-03T10:40:08.735Z,16.44
2016-11-03T10:41:18.998Z,16.45
2016-11-03T10:42:29.332Z,16.39
2016-11-03T10:43:39.688Z,16.3
2016-11-03T10:44:49.730Z,16.26
2016-11-03T10:46:00.042Z,16.29
2016-11-03T10:47:10.372Z,16.34
2016-11-03T10:48:20.732Z,16.36
2016-11-03T10:49:31.066Z,16.36
2016-11-03T10:50:41.386Z,16.62
2016-11-03T10:51:51.770Z,16.8
2016-11-03T10:53:02.074Z,16.95
2016-11-03T10:54:12.401Z,16.91
2016-11-03T10:55:22.728Z,17.1
2016-11-03T10:56:33.014Z,17.1
2016-11-03T10:57:43.329Z,17.12
2016-11-03T10:58:53.623Z,17.07
2016-11-03T11:00:03.634Z,17.07
2016-11-03T11:01:13.937Z,17.18
2016-11-03T11:02:24.252Z,17.22
2016-11-03T11:03:34.560Z,17.38
2016-11-03T11:04:44.870Z,17.47
2016-11-03T11:05:54.561Z,17.57
2016-11-03T11:07:04.861Z,17.69
2016-11-03T11:08:14.886Z,17.66
2016-11-03T11:09:25.188Z,17.63
2016-11-03T11:10:35.505Z,17.73
2016-11-03T11:11:45.499Z,17.69
2016-11-03T11:12:55.494Z,17.76
2016-11-03T11:14:05.218Z,17.83
2016-11-03T11:15:15.518Z,17.95
2016-11-03T11:16:25.823Z,18.03
2016-11-03T11:17:36.128Z,17.73
2016-11-03T11:18:46.436Z,17.55
2016-11-03T11:19:56.443Z,17.27
2016-11-03T11:21:06.750Z,16.55
2016-11-03T11:22:17.060Z,16.67
2016-11-03T11:23:27.416Z,16.74
2016-11-03T11:24:37.450Z,17.17
2016-11-03T11:25:47.506Z,17.25
2016-11-03T11:26:57.497Z,17.45
2016-11-03T11:28:07.947Z,17.54
2016-11-03T11:29:18.273Z,17.62
2016-11-03T11:30:28.292Z,17.5
2016-11-03T11:31:38.629Z,17.35
2016-11-03T11:32:48.633Z,17.2
2016-11-03T11:33:58.637Z,17.21
2016-11-03T11:35:08.999Z,17.17
2016-11-03T11:36:19.317Z,16.99
2016-11-03T11:37:29.630Z,16.9
2016-11-03T11:38:39.616Z,16.94
2016-11-03T11:39:49.911Z,16.94
2016-11-03T11:41:00.264Z,16.95
2016-11-03T11:42:10.550Z,17.07
2016-11-03T11:43:20.538Z,17.03
2016-11-03T11:44:30.856Z,17.06
2016-11-03T11:45:40.888Z,17.09
2016-11-03T11:46:51.171Z,17.07
2016-11-03T11:48:01.483Z,17.24
2016-11-03T11:49:11.813Z,17.17
2016-11-03T11:50:22.131Z,17.36
2016-11-03T11:51:32.117Z,17.43
2016-11-03T11:52:42.110Z,17.55
2016-11-03T11:53:52.413Z,17.43
2016-11-03T11:55:02.721Z,17.17
2016-11-03T11:56:12.728Z,17.09
2016-11-03T11:57:23.090Z,17.3
2016-11-03T11:58:33.068Z,17.46
2016-11-03T11:59:43.096Z,17.42
2016-11-03T12:00:53.415Z,17.42
2016-11-03T12:02:03.742Z,17.07
2016-11-03T12:03:14.045Z,16.62
2016-11-03T12:04:24.387Z,16.58
2016-11-03T12:05:34.689Z,16.69
2016-11-03T12:06:44.753Z,16.34
2016-11-03T12:07:55.061Z,15.98
2016-11-03T12:09:04.741Z,15.95
2016-11-03T12:10:15.063Z,15.65
2016-11-03T12:11:25.367Z,15.95
2016-11-03T12:12:35.672Z,16.27
2016-11-03T12:13:45.355Z,16.55
2016-11-03T12:14:55.660Z,16.74
2016-11-03T12:16:05.682Z,17
2016-11-03T12:17:15.670Z,17.12
2016-11-03T12:18:25.964Z,16.9
2016-11-03T12:19:35.976Z,16.62
2016-11-03T12:20:46.022Z,16.39
2016-11-03T12:21:56.326Z,16.36
2016-11-03T12:23:06.305Z,16.06
2016-11-03T12:24:15.993Z,15.88
2016-11-03T12:25:26.303Z,15.78
2016-11-03T12:26:36.286Z,15.65
2016-11-03T12:27:46.288Z,15.6
2016-11-03T12:28:56.281Z,15.43
2016-11-03T12:30:06.340Z,15.4
2016-11-03T12:31:16.377Z,15.4
2016-11-03T12:32:26.697Z,15.27
2016-11-03T12:33:36.707Z,15.3
2016-11-03T12:34:46.746Z,15.3
2016-11-03T12:35:56.753Z,15.23
2016-11-03T12:37:06.453Z,15.27
2016-11-03T12:38:16.444Z,15.25
2016-11-03T12:39:26.730Z,15.23
2016-11-03T12:40:36.412Z,15.47
2016-11-03T12:41:46.708Z,15.75
2016-11-03T12:42:56.995Z,15.95
2016-11-03T12:44:07.292Z,16.22
2016-11-03T12:45:17.278Z,16.37
2016-11-03T12:46:27.288Z,16.45
2016-11-03T12:47:37.580Z,16.45
2016-11-03T12:48:47.870Z,16.33
2016-11-03T12:49:57.859Z,16.29
2016-11-03T12:51:07.862Z,16.14
2016-11-03T12:52:17.553Z,16.06
2016-11-03T12:53:27.902Z,16.1
2016-11-03T12:54:38.256Z,16.17
2016-11-03T12:55:48.570Z,16.17
2016-11-03T12:56:58.877Z,16.17
2016-11-03T12:58:09.175Z,16.25
2016-11-03T12:59:19.472Z,16.21
2016-11-03T13:00:29.802Z,16.22
2016-11-03T13:01:40.128Z,16.29
2016-11-03T13:02:50.451Z,16.33
2016-11-03T13:04:00.158Z,16.39
2016-11-03T13:05:10.435Z,16.3
2016-11-03T13:06:20.449Z,16.27
2016-11-03T13:07:30.739Z,16.29
2016-11-03T13:08:40.410Z,16.21
2016-11-03T13:09:49.778Z,16.17
2016-11-03T13:11:00.083Z,16.29
2016-11-03T13:12:09.785Z,16.22
2016-11-03T13:13:19.785Z,15.73
2016-11-03T13:14:29.783Z,15.22
2016-11-03T13:15:40.096Z,15.08
2016-11-03T13:16:50.412Z,15.05
2016-11-03T13:18:00.716Z,15.27
2016-11-03T13:19:11.005Z,15.44
2016-11-03T13:20:21.000Z,15.04
2016-11-03T13:21:30.926Z,14.63
2016-11-03T13:22:40.659Z,14.56
2016-11-03T13:23:50.657Z,14.75
2016-11-03T13:25:00.640Z,14.82
2016-11-03T13:26:10.614Z,14.89
2016-11-03T13:27:20.609Z,14.69
2016-11-03T13:28:30.601Z,14.66
2016-11-03T13:29:40.927Z,14.75
2016-11-03T13:30:51.233Z,14.9
2016-11-03T13:32:00.915Z,14.98
2016-11-03T13:33:11.224Z,15.08
2016-11-03T13:34:21.212Z,14.77
2016-11-03T13:35:31.521Z,14.67
2016-11-03T13:36:41.847Z,14.64
2016-11-03T13:37:51.846Z,14.66
2016-11-03T13:39:02.139Z,14.66
2016-11-03T13:40:12.433Z,14.52
2016-11-03T13:41:22.142Z,14.77
2016-11-03T13:42:32.450Z,14.74
2016-11-03T13:43:42.458Z,14.86
2016-11-03T13:44:52.428Z,15.01
2016-11-03T13:46:02.115Z,15.02
2016-11-03T13:47:12.418Z,15.15
2016-11-03T13:48:22.716Z,15.13
2016-11-03T13:49:32.733Z,15.25
2016-11-03T13:50:43.049Z,15.22
2016-11-03T13:51:53.059Z,15.18
2016-11-03T13:53:03.053Z,15.16
2016-11-03T13:54:13.355Z,15.05
2016-11-03T13:55:23.711Z,15.01
2016-11-03T13:56:34.048Z,14.9
2016-11-03T13:57:44.355Z,14.83
2016-11-03T13:58:54.038Z,14.74
2016-11-03T14:00:04.047Z,14.67
2016-11-03T14:01:14.032Z,14.7
2016-11-03T14:02:24.345Z,14.61
2016-11-03T14:03:34.646Z,14.63
2016-11-03T14:04:44.373Z,14.64
2016-11-03T14:05:54.375Z,14.69
2016-11-03T14:07:04.059Z,14.64
2016-11-03T14:08:14.403Z,14.59
2016-11-03T14:09:24.408Z,14.56
2016-11-03T14:10:34.427Z,14.63
2016-11-03T14:11:44.438Z,14.59
2016-11-03T14:12:54.750Z,14.66
2016-11-03T14:14:04.732Z,14.59
2016-11-03T14:15:14.417Z,14.53
2016-11-03T14:16:24.748Z,14.6
2016-11-03T14:17:34.752Z,14.45
2016-11-03T14:18:44.475Z,14.51
2016-11-03T14:19:54.786Z,14.38
2016-11-03T14:21:05.092Z,14.38
2016-11-03T14:22:15.419Z,14.38
2016-11-03T14:23:25.397Z,14.36
2016-11-03T14:24:35.719Z,14.2
2016-11-03T14:25:45.720Z,14.08
2016-11-03T14:26:56.032Z,13.93
2016-11-03T14:28:06.339Z,13.84
2016-11-03T14:29:16.328Z,13.72
2016-11-03T14:30:26.612Z,13.86
2016-11-03T14:31:36.911Z,13.87
2016-11-03T14:32:47.216Z,13.86
2016-11-03T14:33:57.513Z,13.84
2016-11-03T14:35:07.495Z,13.78
2016-11-03T14:36:17.484Z,13.69
2016-11-03T14:37:27.466Z,13.62
2016-11-03T14:38:37.767Z,13.54
2016-11-03T14:39:47.135Z,13.37
2016-11-03T14:40:56.819Z,13.36
2016-11-03T14:42:06.825Z,13.35
2016-11-03T14:43:17.463Z,13.17
2016-11-03T14:44:27.514Z,13.01
2016-11-03T14:45:37.535Z,12.83
2016-11-03T14:46:47.581Z,12.56
2016-11-03T14:47:57.951Z,12.62
2016-11-03T14:49:07.979Z,12.48
2016-11-03T14:50:18.304Z,12.53
2016-11-03T14:51:27.695Z,12.44
2016-11-03T14:52:38.030Z,12.31
2016-11-03T14:53:48.036Z,12.33
2016-11-03T14:54:58.347Z,12.26
2016-11-03T14:56:08.347Z,12.31
2016-11-03T14:57:18.379Z,12.19
2016-11-03T14:58:28.675Z,12.19
2016-11-03T14:59:38.658Z,12.15
2016-11-03T15:00:48.960Z,12.11
2016-11-03T15:01:58.628Z,12.04
2016-11-03T15:03:08.928Z,12.05
2016-11-03T15:04:19.250Z,12.03
2016-11-03T15:05:28.927Z,11.95
2016-11-03T15:06:39.217Z,11.95
2016-11-03T15:07:48.890Z,11.91
2016-11-03T15:08:58.893Z,11.86
2016-11-03T15:10:08.896Z,11.85
2016-11-03T15:11:18.876Z,11.81
2016-11-03T15:12:28.570Z,11.79
2016-11-03T15:13:38.604Z,11.7
2016-11-03T15:14:48.873Z,11.79
2016-11-03T15:15:58.837Z,11.78
2016-11-03T15:17:08.537Z,11.67
2016-11-03T15:18:18.867Z,11.59
2016-11-03T15:19:29.157Z,11.57
2016-11-03T15:20:39.451Z,11.51
2016-11-03T15:21:49.753Z,11.49
2016-11-03T15:23:00.064Z,11.46
2016-11-03T15:24:10.068Z,11.42
2016-11-03T15:25:20.382Z,11.34
2016-11-03T15:26:30.670Z,11.27
2016-11-03T15:27:41.000Z,11.27
2016-11-03T15:28:51.326Z,11.3
2016-11-03T15:30:01.044Z,11.2
2016-11-03T15:31:11.321Z,11.24
2016-11-03T15:32:21.630Z,11.21
2016-11-03T15:33:31.965Z,11.18
2016-11-03T15:34:41.963Z,11.16
2016-11-03T15:35:52.307Z,11.08
2016-11-03T15:37:02.619Z,11.1
2016-11-03T15:38:12.919Z,11.05
2016-11-03T15:39:23.211Z,11.02
2016-11-03T15:40:32.264Z,10.98